MGSJ

Details ICAO MGSJ
Name SAN JOSE
Region Guatemala
Timezone America/Guatemala (UTC-6.0)
Plans Departing 8
Arriving 21
Stats Elevation 29 ft / 9 m (AMSL)
Location 13.936191° -90.835832°
Runways 1
Magnetic Variation 1.262° E
Sunrise 2018-05-21 11:36:43 UTC / 2018-05-21 05:36:43 Local
Sunset 2018-05-22 00:26:02 UTC / 2018-05-21 18:26:02 Local
Advertisement - Login to hide

Runways

ID Width Length Bearing (true) Bearing (mag) Surface Threshold Offset Overrun Length
15 150 ft / 46 m 6,639 ft / 2,024 m 156.87° 155.61° Asphalt 0 ft / 0 m 0 ft / 0 m
33 150 ft / 46 m 6,639 ft / 2,024 m 336.87° 335.61° Asphalt 0 ft / 0 m 0 ft / 0 m

Map

Weather


0- 5 10 15 20 25 30 35+ Temperature / ° C

Clouds and Precipitation
Forecast for 2018-05-21 06:00 UTC. Updated 2 hours ago

Ground ~20,000 ft ~40,000 ft Winds

METAR

Not found

TAF

MGSJ 210500Z 2106/2206 00000KT 9999 SCT016 TX32/2120Z TN25/2112Z TEMPO 2106/2110 8000 TSRA SCT025CB BECMG 2115/2117 18008KT FEW018 TEMPO 2122/2204 24008KT 8000 TSRA SCT020TCU FEW025CB BECMG 2202/2204 00000KT SCT016

Frequencies

Tower 118.50 MHz TWR
Warning: Do not use this data for real-world aviation or navigation. No guarantee of current accuracy is given.